Ft Sturla — IBXV — position and weather

sailwx.info

Track history (hours):
 
Tides and Currents Weather Stations Pressure Air Temp Water Temp Dewpoint Dewpoint Depression Visibility Wind Speed Wind Dir Waves Ship Positions

Ft Sturla

Last reported at 2015-Feb-28 02:24 UTC. Time now 2015-Feb-28 06:58 UTC.
Position N 38°54' E 001°27'.

Length 120 m; draft 7.3 m.

Type: Tanker. MMSI: 247282200.

Date/timePositionNaut miles runAvg speedWind from/ knotsBaromVisibWave heightAir tempDewpointWater temp
2015-Feb-28 02:24N 38°54' E 001°27'1 1.4
2015-Feb-28 01:33N 38°53' E 001°28'0 0.0
2015-Feb-28 00:31N 38°53' E 001°28'0 0.0
2015-Feb-27 23:33N 38°53' E 001°28'0 0.0
2015-Feb-27 22:33N 38°53' E 001°28'0 0.0
2015-Feb-27 21:33N 38°53' E 001°28'0 0.0
2015-Feb-27 20:33N 38°53' E 001°28'0 0.0
2015-Feb-27 19:21N 38°53' E 001°28'0 0.0
2015-Feb-27 18:33N 38°53' E 001°28'0 0.0
2015-Feb-27 17:33N 38°53' E 001°28'0 0.0
2015-Feb-27 16:33N 38°53' E 001°28'0 0.1
2015-Feb-27 15:33N 38°53' E 001°28'0 0.2
2015-Feb-27 14:33N 38°53' E 001°28'0 0.0
2015-Feb-27 13:30N 38°53' E 001°28'0 0.0
2015-Feb-27 12:33N 38°53' E 001°28'0 0.1
2015-Feb-27 11:31N 38°53' E 001°28'9 9.9
2015-Feb-27 10:33N 38°57' E 001°39'1211.6
2015-Feb-27 09:33N 39°07' E 001°47'1312.5
2015-Feb-27 08:31N 39°20' E 001°49'1212.1
2015-Feb-27 07:33N 39°31' E 001°50'1211.8
2015-Feb-27 06:33N 39°43' E 001°53'1212.1
2015-Feb-27 05:33N 39°55' E 001°56'1212.1
2015-Feb-27 04:33N 40°07' E 001°58'1212.2
2015-Feb-27 03:33N 40°19' E 001°59'1212.4
2015-Feb-27 02:33N 40°31' E 002°02'1212.6
2015-Feb-27 01:33N 40°44' E 002°04'1212.1
2015-Feb-27 00:33N 40°56' E 002°06'1211.8
2015-Feb-26 23:33N 41°08' E 002°09'1311.3
2015-Feb-26 22:23N 41°21' E 002°10'1 0.1
2015-Feb-26 16:14N 41°20' E 002°09'0 0.0
2015-Feb-26 15:33N 41°20' E 002°09'0 0.0
2015-Feb-26 06:03N 41°20' E 002°09'0 0.0
2015-Feb-26 05:23N 41°20' E 002°09'0 0.0
2015-Feb-26 04:28N 41°20' E 002°09'0 0.0
2015-Feb-26 03:30N 41°20' E 002°09'0 0.0
2015-Feb-26 02:04N 41°20' E 002°09'2 0.9
2015-Feb-25 23:31N 41°19' E 002°12'1 0.2
2015-Feb-25 20:13N 41°20' E 002°11'0 0.1
2015-Feb-25 18:21N 41°20' E 002°11'0 0.1
2015-Feb-25 15:28N 41°20' E 002°11'3 3.6
2015-Feb-25 14:33N 41°17' E 002°13'8 8.1
2015-Feb-25 13:33N 41°20' E 002°23'1212.3
2015-Feb-25 12:33N 41°28' E 002°36'1212.1
2015-Feb-25 11:33N 41°35' E 002°49'1513.3
2015-Feb-25 10:27N 41°44' E 003°04'1411.9
2015-Feb-25 09:14N 41°55' E 003°16'6 6.5
2015-Feb-25 08:21N 41°58' E 003°23'41 5.2
2015-Feb-25 00:30N 42°01' E 004°18'5 4.8
2015-Feb-24 23:28N 42°02' E 004°25'11 5.0
2015-Feb-24 21:16N 42°06' E 004°39'17 5.6
2015-Feb-24 18:12N 42°14' E 004°59'5 6.3
2015-Feb-24 17:28N 42°16' E 005°05'6 5.9
2015-Feb-24 16:28N 42°19' E 005°12'6 6.1
2015-Feb-24 15:24N 42°22' E 005°19'66 6.1
2015-Feb-24 04:33N 42°52' E 006°39'9 8.9
2015-Feb-24 03:33N 42°45' E 006°45'22 9.0
2015-Feb-24 01:08N 42°50' E 007°14'813.0
2015-Feb-24 00:33N 42°52' E 007°24'10511.7
2015-Feb-23 15:33N 42°53' E 009°48'  
2015-Feb-21 00:33N 42°56' E 007°22'2311.5
2015-Feb-20 22:33N 42°53' E 006°51'1211.4
2015-Feb-20 21:33N 42°52' E 006°35'7210.3
2015-Feb-20 14:33N 43°13' E 005°00'1010.5
2015-Feb-20 13:33N 43°24' E 004°59'0 0.5
2015-Feb-20 12:32N 43°24' E 004°60'0 0.0
2015-Feb-20 11:32N 43°24' E 004°60'0 0.0
2015-Feb-20 10:32N 43°24' E 004°60'0 0.0
2015-Feb-20 09:32N 43°24' E 004°60'0 0.0
2015-Feb-20 08:32N 43°24' E 004°60'0 0.0
2015-Feb-20 07:32N 43°24' E 004°60'0 0.0
2015-Feb-20 06:32N 43°24' E 004°60'0 0.0
2015-Feb-20 05:29N 43°24' E 004°60'0 0.0
2015-Feb-20 04:32N 43°24' E 004°60'0 0.0
2015-Feb-20 03:32N 43°24' E 004°60'0 0.0
2015-Feb-20 02:32N 43°24' E 004°60'0 0.0
2015-Feb-20 01:32N 43°24' E 004°60'0 0.0
2015-Feb-20 00:32N 43°24' E 004°60'0 0.0
2015-Feb-19 23:32N 43°24' E 004°60'0 0.0
2015-Feb-19 22:32N 43°24' E 004°60'0 0.0
2015-Feb-19 21:32N 43°24' E 004°60'0 0.0
2015-Feb-19 20:32N 43°24' E 004°60'0 0.0
2015-Feb-19 19:33N 43°24' E 004°60'1 1.4
2015-Feb-19 18:31N 43°24' E 004°58'0 0.0
2015-Feb-19 17:31N 43°24' E 004°58'0 0.0
2015-Feb-19 16:31N 43°24' E 004°58'0 0.0
2015-Feb-19 15:31N 43°24' E 004°58'0 0.0
2015-Feb-19 14:28N 43°24' E 004°58'0 0.1
2015-Feb-19 13:31N 43°24' E 004°58'1010.0
2015-Feb-19 12:33N 43°15' E 005°01'1312.2
2015-Feb-19 11:31N 43°06' E 005°13'1412.2
2015-Feb-19 10:21N 42°56' E 005°28'  
Track history (hours):
 
Tides and Currents Weather Stations Pressure Air Temp Water Temp Dewpoint Dewpoint Depression Visibility Wind Speed Wind Dir Waves Ship Positions

Ft Sturla

Last reported at 2015-Feb-28 02:24 UTC. Time now 2015-Feb-28 06:58 UTC.
Position N 38°54' E 001°27'.

Length 120 m; draft 7.3 m.

Type: Tanker. MMSI: 247282200.

Date/timePositionNaut miles runAvg speedWind from/ knotsBaromVisibWave heightAir tempDewpointWater temp
2015-Feb-28 02:24N 38°54' E 001°27'1 1.4
2015-Feb-28 01:33N 38°53' E 001°28'0 0.0
2015-Feb-28 00:31N 38°53' E 001°28'0 0.0
2015-Feb-27 23:33N 38°53' E 001°28'0 0.0
2015-Feb-27 22:33N 38°53' E 001°28'0 0.0
2015-Feb-27 21:33N 38°53' E 001°28'0 0.0
2015-Feb-27 20:33N 38°53' E 001°28'0 0.0
2015-Feb-27 19:21N 38°53' E 001°28'0 0.0
2015-Feb-27 18:33N 38°53' E 001°28'0 0.0
2015-Feb-27 17:33N 38°53' E 001°28'0 0.0
2015-Feb-27 16:33N 38°53' E 001°28'0 0.1
2015-Feb-27 15:33N 38°53' E 001°28'0 0.2
2015-Feb-27 14:33N 38°53' E 001°28'0 0.0
2015-Feb-27 13:30N 38°53' E 001°28'0 0.0
2015-Feb-27 12:33N 38°53' E 001°28'0 0.1
2015-Feb-27 11:31N 38°53' E 001°28'9 9.9
2015-Feb-27 10:33N 38°57' E 001°39'1211.6
2015-Feb-27 09:33N 39°07' E 001°47'1312.5
2015-Feb-27 08:31N 39°20' E 001°49'1212.1
2015-Feb-27 07:33N 39°31' E 001°50'1211.8
2015-Feb-27 06:33N 39°43' E 001°53'1212.1
2015-Feb-27 05:33N 39°55' E 001°56'1212.1
2015-Feb-27 04:33N 40°07' E 001°58'1212.2
2015-Feb-27 03:33N 40°19' E 001°59'1212.4
2015-Feb-27 02:33N 40°31' E 002°02'1212.6
2015-Feb-27 01:33N 40°44' E 002°04'1212.1
2015-Feb-27 00:33N 40°56' E 002°06'1211.8
2015-Feb-26 23:33N 41°08' E 002°09'1311.3
2015-Feb-26 22:23N 41°21' E 002°10'1 0.1
2015-Feb-26 16:14N 41°20' E 002°09'0 0.0
2015-Feb-26 15:33N 41°20' E 002°09'0 0.0
2015-Feb-26 06:03N 41°20' E 002°09'0 0.0
2015-Feb-26 05:23N 41°20' E 002°09'0 0.0
2015-Feb-26 04:28N 41°20' E 002°09'0 0.0
2015-Feb-26 03:30N 41°20' E 002°09'0 0.0
2015-Feb-26 02:04N 41°20' E 002°09'2 0.9
2015-Feb-25 23:31N 41°19' E 002°12'1 0.2
2015-Feb-25 20:13N 41°20' E 002°11'0 0.1
2015-Feb-25 18:21N 41°20' E 002°11'0 0.1
2015-Feb-25 15:28N 41°20' E 002°11'3 3.6
2015-Feb-25 14:33N 41°17' E 002°13'8 8.1
2015-Feb-25 13:33N 41°20' E 002°23'1212.3
2015-Feb-25 12:33N 41°28' E 002°36'1212.1
2015-Feb-25 11:33N 41°35' E 002°49'1513.3
2015-Feb-25 10:27N 41°44' E 003°04'1411.9
2015-Feb-25 09:14N 41°55' E 003°16'6 6.5
2015-Feb-25 08:21N 41°58' E 003°23'41 5.2
2015-Feb-25 00:30N 42°01' E 004°18'5 4.8
2015-Feb-24 23:28N 42°02' E 004°25'11 5.0
2015-Feb-24 21:16N 42°06' E 004°39'17 5.6
2015-Feb-24 18:12N 42°14' E 004°59'5 6.3
2015-Feb-24 17:28N 42°16' E 005°05'6 5.9
2015-Feb-24 16:28N 42°19' E 005°12'6 6.1
2015-Feb-24 15:24N 42°22' E 005°19'66 6.1
2015-Feb-24 04:33N 42°52' E 006°39'9 8.9
2015-Feb-24 03:33N 42°45' E 006°45'22 9.0
2015-Feb-24 01:08N 42°50' E 007°14'813.0
2015-Feb-24 00:33N 42°52' E 007°24'10511.7
2015-Feb-23 15:33N 42°53' E 009°48'  
2015-Feb-21 00:33N 42°56' E 007°22'2311.5
2015-Feb-20 22:33N 42°53' E 006°51'1211.4
2015-Feb-20 21:33N 42°52' E 006°35'7210.3
2015-Feb-20 14:33N 43°13' E 005°00'1010.5
2015-Feb-20 13:33N 43°24' E 004°59'0 0.5
2015-Feb-20 12:32N 43°24' E 004°60'0 0.0
2015-Feb-20 11:32N 43°24' E 004°60'0 0.0
2015-Feb-20 10:32N 43°24' E 004°60'0 0.0
2015-Feb-20 09:32N 43°24' E 004°60'0 0.0
2015-Feb-20 08:32N 43°24' E 004°60'0 0.0
2015-Feb-20 07:32N 43°24' E 004°60'0 0.0
2015-Feb-20 06:32N 43°24' E 004°60'0 0.0
2015-Feb-20 05:29N 43°24' E 004°60'0 0.0
2015-Feb-20 04:32N 43°24' E 004°60'0 0.0
2015-Feb-20 03:32N 43°24' E 004°60'0 0.0
2015-Feb-20 02:32N 43°24' E 004°60'0 0.0
2015-Feb-20 01:32N 43°24' E 004°60'0 0.0
2015-Feb-20 00:32N 43°24' E 004°60'0 0.0
2015-Feb-19 23:32N 43°24' E 004°60'0 0.0
2015-Feb-19 22:32N 43°24' E 004°60'0 0.0
2015-Feb-19 21:32N 43°24' E 004°60'0 0.0
2015-Feb-19 20:32N 43°24' E 004°60'0 0.0
2015-Feb-19 19:33N 43°24' E 004°60'1 1.4
2015-Feb-19 18:31N 43°24' E 004°58'0 0.0
2015-Feb-19 17:31N 43°24' E 004°58'0 0.0
2015-Feb-19 16:31N 43°24' E 004°58'0 0.0
2015-Feb-19 15:31N 43°24' E 004°58'0 0.0
2015-Feb-19 14:28N 43°24' E 004°58'0 0.1
2015-Feb-19 13:31N 43°24' E 004°58'1010.0
2015-Feb-19 12:33N 43°15' E 005°01'1312.2
2015-Feb-19 11:31N 43°06' E 005°13'1412.2
2015-Feb-19 10:21N 42°56' E 005°28'  

Dump ship's entire track history